SQ9ROQ-13 Weather Reports


Display with metric or nautical units.
time (UTC)temp
F
wind
direction
speed
MPH
gust
MPH
rain 1hr
in
rain 24hr
in
rain mn
in
humidity
%
barometer
mb
20200531170055 54 0.0 0.0 0.00 0.00 0.00 99 1013.3
20200531164555 54 0.0 0.0 0.00 0.00 0.00 99 1013.2
20200531163055 54 0.0 0.0 0.00 0.00 0.00 99 1013.2
20200531161555 54 0.0 0.0 0.00 0.00 0.00 99 1013.0
20200531160055 53 0.0 0.0 0.00 0.00 0.00 99 1029.2
20200531154555 53 0.0 0.0 0.00 0.00 0.00 99 1012.9
20200531153055 53 0.0 0.0 0.00 0.00 0.00 99 1012.9
20200531151555 53 0.0 0.0 0.00 0.00 0.00 99 1012.7
20200531150055 53 0.0 0.0 0.00 0.00 0.00 99 1012.5
20200531144555 54 0.0 0.0 0.00 0.00 0.00 99 1012.3
20200531143056 54 0.0 0.0 0.00 0.00 0.00 99 1012.2
20200531141556 54 0.0 0.0 0.00 0.00 0.00 99 1012.1
20200531134555 53 0.0 0.0 0.00 0.00 0.00 99 1012.0
20200531133056 53 0.0 0.0 0.00 0.00 0.00 99 1011.8
20200531131555 53 0.0 0.0 0.00 0.00 0.00 99 1011.7
20200531130055 52 0.0 0.0 0.00 0.00 0.00 99 1011.6
20200531124555 52 0.0 0.0 0.00 0.00 0.00 99 1011.5
20200531123055 52 0.0 0.0 0.00 0.00 0.00 99 1011.4
20200531121555 52 0.0 0.0 0.00 0.00 0.00 99 1011.3
20200531120055 51 0.0 0.0 0.00 0.00 0.00 99 1011.2
20200531113055 52 0.0 0.0 0.00 0.00 0.00 99 1010.9
20200531111555 52 0.0 0.0 0.00 0.00 0.00 99 1010.6
20200531110055 7 0.0 0.0 0.00 0.00 0.00 99 11.3
20200531104555 52 0.0 0.0 0.00 0.00 0.00 99 1010.5
20200531103056 52 0.0 0.0 0.00 0.00 0.00 99 1010.3
20200531101556 51 0.0 0.0 0.00 0.00 0.00 99 1010.2
20200531100056 51 0.0 0.0 0.00 0.00 0.00 99 1010.1
20200531094555 51 0.0 0.0 0.00 0.00 0.00 99 1009.9
20200531093056 51 0.0 0.0 0.00 0.00 0.00 99 1009.7
20200531090055 51 0.0 0.0 0.00 0.00 0.00 99 1009.5
20200531084555 50 0.0 0.0 0.00 0.00 0.00 99 1009.3
20200531083055 50 0.0 0.0 0.00 0.00 0.00 99 1009.2
20200531080055 50 0.0 0.0 0.00 0.00 0.00 99 1009.1
20200531074555 49 0.0 0.0 0.00 0.00 0.00 99 1008.9
20200531073055 49 0.0 0.0 0.00 0.00 0.00 99 1008.9
20200531071555 49 0.0 0.0 0.00 0.00 0.00 99 1008.7
20200531070055 49 0.0 0.0 0.00 0.00 0.00 99 1008.7
20200531064555 48 0.0 0.0 0.00 0.00 0.00 99 1008.7
20200531063056 48 0.0 0.0 0.00 0.00 0.00 99 1008.7
20200531061556 48 0.0 0.0 0.00 0.00 0.00 99 1008.8
20200531060055 48 0.0 0.0 0.00 0.00 0.00 99 1008.6
20200531054555 48 0.0 0.0 0.00 0.00 0.00 99 1008.5
20200531053055 48 0.0 0.0 0.00 0.00 0.00 99 1008.7
20200531051556 47 0.0 0.0 0.00 0.00 0.00 99 1008.7
20200531050055 47 0.0 0.0 0.00 0.00 0.00 99 1008.6
20200531044556 47 0.0 0.0 0.00 0.00 0.00 99 1008.9
20200531041555 47 0.0 0.0 0.00 0.00 0.00 99 1008.8
20200531040055 46 0.0 0.0 0.00 0.00 0.00 99 1008.9
20200531033055 46 0.0 0.0 0.00 0.00 0.00 99 1009.0
20200531031555 46 0.0 0.0 0.00 0.00 0.00 99 1009.4
20200531030055 46 0.0 0.0 0.00 0.00 0.00 99 1009.3
20200531024555 47 0.0 0.0 0.00 0.00 0.00 99 1009.5
20200531023055 46 0.0 0.0 0.00 0.00 0.00 99 1009.7
20200531021555 47 0.0 0.0 0.00 0.00 0.00 99 1009.7
20200531020056 47 0.0 0.0 0.00 0.00 0.00 99 1009.9
20200531014555 47 0.0 0.0 0.00 0.00 0.00 99 1010.1
20200531013056 47 0.0 0.0 0.00 0.00 0.00 99 1010.4
20200531010055 47 0.0 0.0 0.00 0.00 0.00 1010.8
20200531004556 47 0.0 0.0 0.00 0.00 0.00 99 1011.0
20200531003055 47 0.0 0.0 0.00 0.00 0.00 1011.3
20200531001555 48 0.0 0.0 0.00 0.00 0.00 99 1011.4
20200531000055 48 0.0 0.0 0.00 0.00 0.00 99 1011.6
20200530234555 48 0.0 0.0 0.00 0.00 0.00 99 1011.8
20200530233055 48 0.0 0.0 0.00 0.00 0.00 99 1012.1
20200530231555 48 0.0 0.0 0.00 0.00 0.00 1012.2
20200530230055 48 0.0 0.0 0.00 0.00 0.00 99 1012.5
20200530224555 8 0.0 0.0 0.00 0.00 0.00 99 9.1
20200530223055 49 0.0 0.0 0.00 0.00 0.00 99 1012.8
20200530221556 49 0.0 0.0 0.00 0.00 0.00 1013.0
20200530220055 50 0.0 0.0 0.00 0.00 0.00 1013.2
20200530214555 51 0.0 0.0 0.00 0.00 0.00 1013.3
20200530213055 53 0.0 0.0 0.00 0.00 0.00 1013.2
20200530211555 53 0.0 0.0 0.00 0.00 0.00 99 1013.2
20200530210055 54 0.0 0.0 0.00 0.00 0.00 99 1013.3
20200530204555 54 0.0 0.0 0.00 0.00 0.00 99 1013.2
20200530203055 54 0.0 0.0 0.00 0.00 0.00 99 1013.3
20200530201555 54 0.0 0.0 0.00 0.00 0.00 99 1013.2
20200530194555 53 0.0 0.0 0.00 0.00 0.00 99 1013.4
20200530193055 53 0.0 0.0 0.00 0.00 0.00 99 1013.5
20200530191555 53 0.0 0.0 0.00 0.00 0.00 99 1013.6
20200530190055 53 0.0 0.0 0.00 0.00 0.00 99 1013.7
20200530184555 54 0.0 0.0 0.00 0.00 0.00 99 1013.5
20200530183055 54 0.0 0.0 0.00 0.00 0.00 99 1013.6
20200530181555 54 0.0 0.0 0.00 0.00 0.00 99 1013.7
20200530180055 54 0.0 0.0 0.00 0.00 0.00 99 1013.7
20200530174555 54 0.0 0.0 0.00 0.00 0.00 99 1013.6
20200530173056 54 0.0 0.0 0.00 0.00 0.00 99 1013.7
20200530171555 54 0.0 0.0 0.00 0.00 0.00 99 1013.6